sensor_id;sensor_type;location;lat;lon;timestamp;P1;durP1;ratioP1;P2;durP2;ratioP2
37407;SDS011;24866;50.248;8.252;2023-03-23T00:01:53;2.38;;;0.82;;
37407;SDS011;24866;50.248;8.252;2023-03-23T00:04:25;5.50;;;2.15;;
37407;SDS011;24866;50.248;8.252;2023-03-23T00:06:58;2.97;;;1.40;;
37407;SDS011;24866;50.248;8.252;2023-03-23T00:09:31;2.35;;;1.35;;
37407;SDS011;24866;50.248;8.252;2023-03-23T00:12:02;3.67;;;0.93;;
37407;SDS011;24866;50.248;8.252;2023-03-23T00:14:33;2.75;;;1.20;;
37407;SDS011;24866;50.248;8.252;2023-03-23T00:17:09;3.65;;;0.95;;
37407;SDS011;24866;50.248;8.252;2023-03-23T00:19:43;2.70;;;0.82;;
37407;SDS011;24866;50.248;8.252;2023-03-23T00:22:17;1.83;;;0.88;;
37407;SDS011;24866;50.248;8.252;2023-03-23T00:24:49;4.65;;;0.90;;
37407;SDS011;24866;50.248;8.252;2023-03-23T00:27:19;3.05;;;0.73;;
37407;SDS011;24866;50.248;8.252;2023-03-23T00:29:52;3.25;;;1.00;;
37407;SDS011;24866;50.248;8.252;2023-03-23T00:32:22;3.42;;;0.77;;
37407;SDS011;24866;50.248;8.252;2023-03-23T00:34:58;2.00;;;0.90;;
37407;SDS011;24866;50.248;8.252;2023-03-23T00:37:28;2.13;;;0.90;;
37407;SDS011;24866;50.248;8.252;2023-03-23T00:39:58;1.15;;;0.57;;
37407;SDS011;24866;50.248;8.252;2023-03-23T00:42:28;1.70;;;0.70;;
37407;SDS011;24866;50.248;8.252;2023-03-23T00:45:04;2.67;;;0.80;;
37407;SDS011;24866;50.248;8.252;2023-03-23T00:47:38;1.75;;;0.60;;
37407;SDS011;24866;50.248;8.252;2023-03-23T00:50:11;2.42;;;0.73;;
37407;SDS011;24866;50.248;8.252;2023-03-23T00:52:41;2.85;;;0.70;;
37407;SDS011;24866;50.248;8.252;2023-03-23T00:55:11;2.88;;;0.65;;
37407;SDS011;24866;50.248;8.252;2023-03-23T00:57:41;2.72;;;0.63;;
37407;SDS011;24866;50.248;8.252;2023-03-23T01:00:12;1.83;;;0.90;;
37407;SDS011;24866;50.248;8.252;2023-03-23T01:02:43;2.10;;;0.52;;
37407;SDS011;24866;50.248;8.252;2023-03-23T01:05:14;3.17;;;0.70;;
37407;SDS011;24866;50.248;8.252;2023-03-23T01:07:45;2.28;;;0.50;;
37407;SDS011;24866;50.248;8.252;2023-03-23T01:10:16;4.68;;;0.70;;
37407;SDS011;24866;50.248;8.252;2023-03-23T01:12:46;6.43;;;2.35;;
37407;SDS011;24866;50.248;8.252;2023-03-23T01:15:17;7.55;;;3.88;;
37407;SDS011;24866;50.248;8.252;2023-03-23T01:17:48;3.97;;;1.50;;
37407;SDS011;24866;50.248;8.252;2023-03-23T01:20:19;1.45;;;0.65;;
37407;SDS011;24866;50.248;8.252;2023-03-23T01:22:50;2.17;;;0.50;;
37407;SDS011;24866;50.248;8.252;2023-03-23T01:25:20;1.73;;;0.65;;
37407;SDS011;24866;50.248;8.252;2023-03-23T01:27:51;1.48;;;0.82;;
37407;SDS011;24866;50.248;8.252;2023-03-23T01:30:21;1.67;;;0.70;;
37407;SDS011;24866;50.248;8.252;2023-03-23T01:32:52;2.80;;;0.80;;
37407;SDS011;24866;50.248;8.252;2023-03-23T01:35:24;2.03;;;0.60;;
37407;SDS011;24866;50.248;8.252;2023-03-23T01:37:54;2.42;;;0.63;;
37407;SDS011;24866;50.248;8.252;2023-03-23T01:40:26;1.58;;;0.57;;
37407;SDS011;24866;50.248;8.252;2023-03-23T01:42:56;2.00;;;0.85;;
37407;SDS011;24866;50.248;8.252;2023-03-23T01:45:28;2.20;;;1.00;;
37407;SDS011;24866;50.248;8.252;2023-03-23T01:48:04;1.73;;;0.70;;
37407;SDS011;24866;50.248;8.252;2023-03-23T01:50:42;2.38;;;0.52;;
37407;SDS011;24866;50.248;8.252;2023-03-23T01:53:16;1.58;;;0.60;;
37407;SDS011;24866;50.248;8.252;2023-03-23T01:55:49;1.65;;;0.77;;
37407;SDS011;24866;50.248;8.252;2023-03-23T01:58:22;0.77;;;0.40;;
37407;SDS011;24866;50.248;8.252;2023-03-23T02:00:55;1.30;;;0.60;;
37407;SDS011;24866;50.248;8.252;2023-03-23T02:03:31;2.15;;;0.32;;
37407;SDS011;24866;50.248;8.252;2023-03-23T02:06:06;2.85;;;0.60;;
37407;SDS011;24866;50.248;8.252;2023-03-23T02:08:36;1.45;;;0.57;;
37407;SDS011;24866;50.248;8.252;2023-03-23T02:16:14;2.53;;;0.52;;
37407;SDS011;24866;50.248;8.252;2023-03-23T02:18:53;1.98;;;0.43;;
37407;SDS011;24866;50.248;8.252;2023-03-23T02:28:11;1.10;;;0.40;;
37407;SDS011;24866;50.248;8.252;2023-03-23T02:31:14;1.38;;;0.80;;
37407;SDS011;24866;50.248;8.252;2023-03-23T02:33:54;1.67;;;0.50;;
37407;SDS011;24866;50.248;8.252;2023-03-23T02:36:30;0.95;;;0.55;;
37407;SDS011;24866;50.248;8.252;2023-03-23T02:39:05;2.72;;;0.70;;
37407;SDS011;24866;50.248;8.252;2023-03-23T02:41:42;1.05;;;0.57;;
37407;SDS011;24866;50.248;8.252;2023-03-23T02:44:16;1.67;;;0.60;;
37407;SDS011;24866;50.248;8.252;2023-03-23T02:46:47;2.30;;;1.00;;
37407;SDS011;24866;50.248;8.252;2023-03-23T02:49:20;2.40;;;0.70;;
37407;SDS011;24866;50.248;8.252;2023-03-23T02:51:51;1.65;;;0.60;;
37407;SDS011;24866;50.248;8.252;2023-03-23T02:54:23;1.00;;;0.60;;
37407;SDS011;24866;50.248;8.252;2023-03-23T02:56:55;1.70;;;0.70;;
37407;SDS011;24866;50.248;8.252;2023-03-23T02:59:26;2.47;;;0.70;;
37407;SDS011;24866;50.248;8.252;2023-03-23T03:02:06;1.67;;;0.70;;
37407;SDS011;24866;50.248;8.252;2023-03-23T03:04:40;2.13;;;0.75;;
37407;SDS011;24866;50.248;8.252;2023-03-23T03:10:18;2.75;;;0.50;;
37407;SDS011;24866;50.248;8.252;2023-03-23T03:12:56;2.38;;;0.80;;
37407;SDS011;24866;50.248;8.252;2023-03-23T03:15:31;2.05;;;0.88;;
37407;SDS011;24866;50.248;8.252;2023-03-23T03:18:07;2.92;;;0.98;;
37407;SDS011;24866;50.248;8.252;2023-03-23T03:20:43;1.73;;;0.90;;
37407;SDS011;24866;50.248;8.252;2023-03-23T03:23:16;3.33;;;1.65;;
37407;SDS011;24866;50.248;8.252;2023-03-23T03:25:49;3.17;;;1.33;;
37407;SDS011;24866;50.248;8.252;2023-03-23T03:28:21;3.85;;;1.05;;
37407;SDS011;24866;50.248;8.252;2023-03-23T03:30:57;2.83;;;1.25;;
37407;SDS011;24866;50.248;8.252;2023-03-23T03:33:29;1.55;;;1.13;;
37407;SDS011;24866;50.248;8.252;2023-03-23T03:36:03;3.23;;;0.80;;
37407;SDS011;24866;50.248;8.252;2023-03-23T03:38:43;1.95;;;0.93;;
37407;SDS011;24866;50.248;8.252;2023-03-23T03:41:15;3.13;;;1.10;;
37407;SDS011;24866;50.248;8.252;2023-03-23T03:43:46;2.05;;;0.75;;
37407;SDS011;24866;50.248;8.252;2023-03-23T03:46:16;1.98;;;0.70;;
37407;SDS011;24866;50.248;8.252;2023-03-23T03:48:46;2.00;;;0.88;;
37407;SDS011;24866;50.248;8.252;2023-03-23T03:51:17;1.98;;;0.90;;
37407;SDS011;24866;50.248;8.252;2023-03-23T03:53:47;1.98;;;0.70;;
37407;SDS011;24866;50.248;8.252;2023-03-23T03:56:18;1.95;;;0.65;;
37407;SDS011;24866;50.248;8.252;2023-03-23T03:58:50;1.75;;;0.80;;
37407;SDS011;24866;50.248;8.252;2023-03-23T04:01:20;5.07;;;2.25;;
37407;SDS011;24866;50.248;8.252;2023-03-23T04:03:52;3.63;;;0.80;;
37407;SDS011;24866;50.248;8.252;2023-03-23T04:06:24;1.90;;;0.60;;
37407;SDS011;24866;50.248;8.252;2023-03-23T04:08:56;3.45;;;1.10;;
37407;SDS011;24866;50.248;8.252;2023-03-23T04:11:29;1.92;;;0.82;;
37407;SDS011;24866;50.248;8.252;2023-03-23T04:13:59;1.58;;;0.70;;
37407;SDS011;24866;50.248;8.252;2023-03-23T04:16:30;3.92;;;1.10;;
37407;SDS011;24866;50.248;8.252;2023-03-23T04:19:02;2.58;;;0.88;;
37407;SDS011;24866;50.248;8.252;2023-03-23T04:21:34;4.03;;;1.08;;
37407;SDS011;24866;50.248;8.252;2023-03-23T04:24:05;2.55;;;1.08;;
37407;SDS011;24866;50.248;8.252;2023-03-23T04:26:36;2.20;;;0.90;;
37407;SDS011;24866;50.248;8.252;2023-03-23T04:29:08;3.47;;;0.98;;
37407;SDS011;24866;50.248;8.252;2023-03-23T04:31:38;4.93;;;1.40;;
37407;SDS011;24866;50.248;8.252;2023-03-23T04:34:13;1.70;;;0.65;;
37407;SDS011;24866;50.248;8.252;2023-03-23T04:36:44;2.83;;;1.10;;
37407;SDS011;24866;50.248;8.252;2023-03-23T04:39:16;3.70;;;1.08;;
37407;SDS011;24866;50.248;8.252;2023-03-23T04:41:46;2.92;;;0.93;;
37407;SDS011;24866;50.248;8.252;2023-03-23T04:44:16;2.35;;;1.23;;
37407;SDS011;24866;50.248;8.252;2023-03-23T04:46:49;3.20;;;0.90;;
37407;SDS011;24866;50.248;8.252;2023-03-23T04:49:22;3.90;;;1.00;;
37407;SDS011;24866;50.248;8.252;2023-03-23T04:51:53;1.80;;;0.98;;
37407;SDS011;24866;50.248;8.252;2023-03-23T04:54:24;4.63;;;1.08;;
37407;SDS011;24866;50.248;8.252;2023-03-23T04:56:57;5.35;;;1.42;;
37407;SDS011;24866;50.248;8.252;2023-03-23T04:59:28;2.38;;;1.40;;
37407;SDS011;24866;50.248;8.252;2023-03-23T05:01:59;5.18;;;0.93;;
37407;SDS011;24866;50.248;8.252;2023-03-23T05:04:29;3.80;;;1.27;;
37407;SDS011;24866;50.248;8.252;2023-03-23T05:07:03;5.35;;;1.58;;
37407;SDS011;24866;50.248;8.252;2023-03-23T05:09:34;2.75;;;1.08;;
37407;SDS011;24866;50.248;8.252;2023-03-23T05:12:04;3.67;;;0.93;;
37407;SDS011;24866;50.248;8.252;2023-03-23T05:14:35;4.57;;;1.23;;
37407;SDS011;24866;50.248;8.252;2023-03-23T05:17:10;4.55;;;1.30;;
37407;SDS011;24866;50.248;8.252;2023-03-23T05:19:40;2.90;;;0.93;;
37407;SDS011;24866;50.248;8.252;2023-03-23T05:22:13;3.42;;;1.20;;
37407;SDS011;24866;50.248;8.252;2023-03-23T05:24:44;3.60;;;1.00;;
37407;SDS011;24866;50.248;8.252;2023-03-23T05:27:23;2.90;;;1.10;;
37407;SDS011;24866;50.248;8.252;2023-03-23T05:29:58;3.90;;;1.05;;
37407;SDS011;24866;50.248;8.252;2023-03-23T05:32:29;3.00;;;1.08;;
37407;SDS011;24866;50.248;8.252;2023-03-23T05:34:59;1.67;;;0.88;;
37407;SDS011;24866;50.248;8.252;2023-03-23T05:37:32;4.37;;;1.93;;
37407;SDS011;24866;50.248;8.252;2023-03-23T05:40:02;2.28;;;1.17;;
37407;SDS011;24866;50.248;8.252;2023-03-23T05:42:34;3.25;;;1.27;;
37407;SDS011;24866;50.248;8.252;2023-03-23T05:45:06;1.83;;;0.90;;
37407;SDS011;24866;50.248;8.252;2023-03-23T05:47:40;2.15;;;1.13;;
37407;SDS011;24866;50.248;8.252;2023-03-23T05:50:11;4.22;;;1.15;;
37407;SDS011;24866;50.248;8.252;2023-03-23T05:52:43;2.25;;;0.90;;
37407;SDS011;24866;50.248;8.252;2023-03-23T05:55:14;1.90;;;1.00;;
37407;SDS011;24866;50.248;8.252;2023-03-23T05:57:45;1.88;;;0.80;;
37407;SDS011;24866;50.248;8.252;2023-03-23T06:00:15;3.75;;;1.20;;
37407;SDS011;24866;50.248;8.252;2023-03-23T06:02:54;1.65;;;0.80;;
37407;SDS011;24866;50.248;8.252;2023-03-23T06:05:24;2.75;;;1.05;;
37407;SDS011;24866;50.248;8.252;2023-03-23T06:07:57;2.65;;;1.20;;
37407;SDS011;24866;50.248;8.252;2023-03-23T06:10:27;1.85;;;0.95;;
37407;SDS011;24866;50.248;8.252;2023-03-23T06:13:00;1.70;;;0.80;;
37407;SDS011;24866;50.248;8.252;2023-03-23T06:15:31;1.95;;;0.90;;
37407;SDS011;24866;50.248;8.252;2023-03-23T06:18:02;2.22;;;1.27;;
37407;SDS011;24866;50.248;8.252;2023-03-23T06:20:39;3.67;;;1.00;;
37407;SDS011;24866;50.248;8.252;2023-03-23T06:23:14;1.70;;;0.90;;
37407;SDS011;24866;50.248;8.252;2023-03-23T06:25:44;2.20;;;0.95;;
37407;SDS011;24866;50.248;8.252;2023-03-23T06:28:14;3.00;;;0.80;;
37407;SDS011;24866;50.248;8.252;2023-03-23T06:30:45;2.10;;;0.90;;
37407;SDS011;24866;50.248;8.252;2023-03-23T06:33:15;2.22;;;1.13;;
37407;SDS011;24866;50.248;8.252;2023-03-23T06:35:46;2.08;;;0.93;;
37407;SDS011;24866;50.248;8.252;2023-03-23T06:38:19;2.87;;;1.00;;
37407;SDS011;24866;50.248;8.252;2023-03-23T06:40:51;2.28;;;1.08;;
37407;SDS011;24866;50.248;8.252;2023-03-23T06:43:21;2.75;;;0.98;;
37407;SDS011;24866;50.248;8.252;2023-03-23T06:45:52;1.10;;;0.70;;
37407;SDS011;24866;50.248;8.252;2023-03-23T06:48:22;2.42;;;0.93;;
37407;SDS011;24866;50.248;8.252;2023-03-23T06:50:52;1.90;;;0.90;;
37407;SDS011;24866;50.248;8.252;2023-03-23T06:53:24;3.17;;;1.00;;
37407;SDS011;24866;50.248;8.252;2023-03-23T06:55:54;2.92;;;1.00;;
37407;SDS011;24866;50.248;8.252;2023-03-23T06:58:24;2.33;;;1.00;;
37407;SDS011;24866;50.248;8.252;2023-03-23T07:00:54;2.70;;;0.88;;
37407;SDS011;24866;50.248;8.252;2023-03-23T07:03:26;2.95;;;0.90;;
37407;SDS011;24866;50.248;8.252;2023-03-23T07:05:56;3.33;;;0.90;;
37407;SDS011;24866;50.248;8.252;2023-03-23T07:08:28;3.05;;;0.88;;
37407;SDS011;24866;50.248;8.252;2023-03-23T07:10:58;3.22;;;1.05;;
37407;SDS011;24866;50.248;8.252;2023-03-23T07:13:29;1.73;;;0.88;;
37407;SDS011;24866;50.248;8.252;2023-03-23T07:15:59;1.75;;;0.85;;
37407;SDS011;24866;50.248;8.252;2023-03-23T07:18:29;2.17;;;0.73;;
37407;SDS011;24866;50.248;8.252;2023-03-23T07:21:00;2.10;;;0.80;;
37407;SDS011;24866;50.248;8.252;2023-03-23T07:23:32;2.47;;;1.08;;
37407;SDS011;24866;50.248;8.252;2023-03-23T07:26:03;6.07;;;1.15;;
37407;SDS011;24866;50.248;8.252;2023-03-23T07:28:33;3.85;;;1.33;;
37407;SDS011;24866;50.248;8.252;2023-03-23T07:31:04;3.08;;;0.88;;
37407;SDS011;24866;50.248;8.252;2023-03-23T07:33:42;2.25;;;0.80;;
37407;SDS011;24866;50.248;8.252;2023-03-23T07:36:13;1.90;;;0.90;;
37407;SDS011;24866;50.248;8.252;2023-03-23T07:38:44;1.55;;;0.80;;
37407;SDS011;24866;50.248;8.252;2023-03-23T07:41:14;2.38;;;1.13;;
37407;SDS011;24866;50.248;8.252;2023-03-23T07:43:44;2.00;;;0.70;;
37407;SDS011;24866;50.248;8.252;2023-03-23T07:46:14;2.80;;;0.93;;
37407;SDS011;24866;50.248;8.252;2023-03-23T07:48:44;4.60;;;1.00;;
37407;SDS011;24866;50.248;8.252;2023-03-23T07:51:14;2.42;;;1.30;;
37407;SDS011;24866;50.248;8.252;2023-03-23T07:53:47;3.92;;;1.75;;
37407;SDS011;24866;50.248;8.252;2023-03-23T07:56:17;2.80;;;1.40;;
37407;SDS011;24866;50.248;8.252;2023-03-23T07:58:48;3.92;;;1.65;;
37407;SDS011;24866;50.248;8.252;2023-03-23T08:01:20;1.92;;;1.10;;
37407;SDS011;24866;50.248;8.252;2023-03-23T08:03:51;2.33;;;1.00;;
37407;SDS011;24866;50.248;8.252;2023-03-23T08:06:22;2.53;;;1.20;;
37407;SDS011;24866;50.248;8.252;2023-03-23T08:08:54;2.83;;;1.20;;
37407;SDS011;24866;50.248;8.252;2023-03-23T08:11:25;1.85;;;1.10;;
37407;SDS011;24866;50.248;8.252;2023-03-23T08:13:56;3.33;;;1.15;;
37407;SDS011;24866;50.248;8.252;2023-03-23T08:16:27;2.47;;;1.35;;
37407;SDS011;24866;50.248;8.252;2023-03-23T08:18:57;2.50;;;1.40;;
37407;SDS011;24866;50.248;8.252;2023-03-23T08:21:28;3.10;;;1.40;;
37407;SDS011;24866;50.248;8.252;2023-03-23T08:24:01;2.78;;;1.40;;
37407;SDS011;24866;50.248;8.252;2023-03-23T08:26:31;2.70;;;1.40;;
37407;SDS011;24866;50.248;8.252;2023-03-23T08:29:01;2.35;;;1.30;;
37407;SDS011;24866;50.248;8.252;2023-03-23T08:31:33;3.83;;;1.70;;
37407;SDS011;24866;50.248;8.252;2023-03-23T08:36:36;3.78;;;1.75;;
37407;SDS011;24866;50.248;8.252;2023-03-23T08:39:07;2.53;;;1.45;;
37407;SDS011;24866;50.248;8.252;2023-03-23T08:41:37;2.33;;;1.40;;
37407;SDS011;24866;50.248;8.252;2023-03-23T08:44:07;2.15;;;1.30;;
37407;SDS011;24866;50.248;8.252;2023-03-23T08:46:37;2.78;;;1.92;;
37407;SDS011;24866;50.248;8.252;2023-03-23T08:49:08;3.20;;;1.60;;
37407;SDS011;24866;50.248;8.252;2023-03-23T08:51:38;3.25;;;1.55;;
37407;SDS011;24866;50.248;8.252;2023-03-23T08:54:10;2.30;;;1.40;;
37407;SDS011;24866;50.248;8.252;2023-03-23T08:56:40;3.92;;;1.88;;
37407;SDS011;24866;50.248;8.252;2023-03-23T08:59:10;2.95;;;1.73;;
37407;SDS011;24866;50.248;8.252;2023-03-23T09:01:40;4.82;;;1.85;;
37407;SDS011;24866;50.248;8.252;2023-03-23T09:04:10;3.75;;;1.60;;
37407;SDS011;24866;50.248;8.252;2023-03-23T09:06:40;2.20;;;1.38;;
37407;SDS011;24866;50.248;8.252;2023-03-23T09:09:12;3.25;;;1.50;;
37407;SDS011;24866;50.248;8.252;2023-03-23T09:11:42;2.87;;;1.30;;
37407;SDS011;24866;50.248;8.252;2023-03-23T09:14:13;2.35;;;1.48;;
37407;SDS011;24866;50.248;8.252;2023-03-23T09:16:43;1.70;;;0.93;;
37407;SDS011;24866;50.248;8.252;2023-03-23T09:19:14;3.13;;;1.20;;
37407;SDS011;24866;50.248;8.252;2023-03-23T09:21:44;1.10;;;0.68;;
37407;SDS011;24866;50.248;8.252;2023-03-23T09:24:16;1.80;;;0.90;;
37407;SDS011;24866;50.248;8.252;2023-03-23T09:26:47;1.92;;;0.77;;
37407;SDS011;24866;50.248;8.252;2023-03-23T09:29:17;1.40;;;0.63;;
37407;SDS011;24866;50.248;8.252;2023-03-23T09:31:49;2.07;;;0.70;;
37407;SDS011;24866;50.248;8.252;2023-03-23T09:34:19;3.22;;;0.68;;
37407;SDS011;24866;50.248;8.252;2023-03-23T09:36:50;2.10;;;0.60;;
37407;SDS011;24866;50.248;8.252;2023-03-23T09:39:22;2.95;;;0.65;;
37407;SDS011;24866;50.248;8.252;2023-03-23T09:41:59;2.70;;;0.60;;
37407;SDS011;24866;50.248;8.252;2023-03-23T09:44:42;1.67;;;0.90;;
37407;SDS011;24866;50.248;8.252;2023-03-23T09:47:25;1.20;;;0.50;;
37407;SDS011;24866;50.248;8.252;2023-03-23T09:50:08;1.77;;;0.63;;
37407;SDS011;24866;50.248;8.252;2023-03-23T09:52:42;3.17;;;0.57;;
37407;SDS011;24866;50.248;8.252;2023-03-23T09:55:17;1.77;;;0.65;;
37407;SDS011;24866;50.248;8.252;2023-03-23T09:57:51;2.33;;;0.50;;
37407;SDS011;24866;50.248;8.252;2023-03-23T10:00:26;1.17;;;0.60;;
37407;SDS011;24866;50.248;8.252;2023-03-23T10:03:05;2.33;;;0.47;;
37407;SDS011;24866;50.248;8.252;2023-03-23T10:05:41;0.93;;;0.30;;
37407;SDS011;24866;50.248;8.252;2023-03-23T10:08:14;4.15;;;0.70;;
37407;SDS011;24866;50.248;8.252;2023-03-23T10:10:54;1.42;;;0.45;;
37407;SDS011;24866;50.248;8.252;2023-03-23T10:13:33;2.08;;;0.50;;
37407;SDS011;24866;50.248;8.252;2023-03-23T10:16:14;1.30;;;0.35;;
37407;SDS011;24866;50.248;8.252;2023-03-23T10:19:01;2.00;;;0.40;;
37407;SDS011;24866;50.248;8.252;2023-03-23T10:21:41;1.55;;;0.50;;
37407;SDS011;24866;50.248;8.252;2023-03-23T10:24:17;0.63;;;0.25;;
37407;SDS011;24866;50.248;8.252;2023-03-23T10:26:56;0.52;;;0.30;;
37407;SDS011;24866;50.248;8.252;2023-03-23T10:29:31;1.27;;;0.65;;
37407;SDS011;24866;50.248;8.252;2023-03-23T10:32:08;2.65;;;0.40;;
37407;SDS011;24866;50.248;8.252;2023-03-23T10:34:43;1.10;;;0.50;;
37407;SDS011;24866;50.248;8.252;2023-03-23T10:37:18;1.88;;;0.50;;
37407;SDS011;24866;50.248;8.252;2023-03-23T10:39:52;0.98;;;0.57;;
37407;SDS011;24866;50.248;8.252;2023-03-23T10:42:26;1.92;;;0.40;;
37407;SDS011;24866;50.248;8.252;2023-03-23T10:44:59;0.85;;;0.38;;
37407;SDS011;24866;50.248;8.252;2023-03-23T10:50:00;0.82;;;0.47;;
37407;SDS011;24866;50.248;8.252;2023-03-23T10:52:35;1.20;;;0.40;;
37407;SDS011;24866;50.248;8.252;2023-03-23T10:55:08;2.17;;;0.38;;
37407;SDS011;24866;50.248;8.252;2023-03-23T10:57:42;1.33;;;0.40;;
37407;SDS011;24866;50.248;8.252;2023-03-23T11:00:18;1.30;;;0.30;;
37407;SDS011;24866;50.248;8.252;2023-03-23T11:03:00;0.68;;;0.30;;
37407;SDS011;24866;50.248;8.252;2023-03-23T11:05:35;0.73;;;0.35;;
37407;SDS011;24866;50.248;8.252;2023-03-23T11:08:10;0.75;;;0.25;;
37407;SDS011;24866;50.248;8.252;2023-03-23T11:10:52;1.85;;;0.30;;
37407;SDS011;24866;50.248;8.252;2023-03-23T11:13:27;0.68;;;0.20;;
37407;SDS011;24866;50.248;8.252;2023-03-23T11:15:59;0.55;;;0.30;;
37407;SDS011;24866;50.248;8.252;2023-03-23T11:18:34;0.90;;;0.20;;
37407;SDS011;24866;50.248;8.252;2023-03-23T11:21:06;0.98;;;0.30;;
37407;SDS011;24866;50.248;8.252;2023-03-23T11:23:40;1.25;;;0.50;;
37407;SDS011;24866;50.248;8.252;2023-03-23T11:26:13;0.55;;;0.30;;
37407;SDS011;24866;50.248;8.252;2023-03-23T11:28:46;0.63;;;0.30;;
37407;SDS011;24866;50.248;8.252;2023-03-23T11:31:21;0.32;;;0.10;;
37407;SDS011;24866;50.248;8.252;2023-03-23T11:33:54;0.40;;;0.30;;
37407;SDS011;24866;50.248;8.252;2023-03-23T11:36:29;1.13;;;0.20;;
37407;SDS011;24866;50.248;8.252;2023-03-23T11:39:02;1.02;;;0.20;;
37407;SDS011;24866;50.248;8.252;2023-03-23T11:41:47;0.98;;;0.30;;
37407;SDS011;24866;50.248;8.252;2023-03-23T11:44:19;1.83;;;0.40;;
37407;SDS011;24866;50.248;8.252;2023-03-23T11:46:55;0.70;;;0.30;;
37407;SDS011;24866;50.248;8.252;2023-03-23T11:49:35;0.70;;;0.30;;
37407;SDS011;24866;50.248;8.252;2023-03-23T11:52:12;0.60;;;0.28;;
37407;SDS011;24866;50.248;8.252;2023-03-23T11:54:50;0.73;;;0.28;;
37407;SDS011;24866;50.248;8.252;2023-03-23T11:57:24;2.17;;;0.43;;
37407;SDS011;24866;50.248;8.252;2023-03-23T12:00:00;3.28;;;0.40;;
37407;SDS011;24866;50.248;8.252;2023-03-23T12:03:58;1.63;;;0.50;;
37407;SDS011;24866;50.248;8.252;2023-03-23T12:05:49;1.33;;;0.40;;
37407;SDS011;24866;50.248;8.252;2023-03-23T12:08:35;3.22;;;0.32;;
37407;SDS011;24866;50.248;8.252;2023-03-23T12:11:16;1.00;;;0.40;;
37407;SDS011;24866;50.248;8.252;2023-03-23T12:13:59;3.03;;;0.47;;
37407;SDS011;24866;50.248;8.252;2023-03-23T12:16:46;1.40;;;0.50;;
37407;SDS011;24866;50.248;8.252;2023-03-23T12:19:28;2.85;;;1.27;;
37407;SDS011;24866;50.248;8.252;2023-03-23T12:22:09;1.05;;;0.40;;
37407;SDS011;24866;50.248;8.252;2023-03-23T12:24:49;2.88;;;0.50;;
37407;SDS011;24866;50.248;8.252;2023-03-23T12:27:31;2.30;;;0.40;;
37407;SDS011;24866;50.248;8.252;2023-03-23T12:30:21;2.58;;;0.90;;
37407;SDS011;24866;50.248;8.252;2023-03-23T12:33:01;1.67;;;0.60;;
37407;SDS011;24866;50.248;8.252;2023-03-23T12:35:44;1.50;;;0.70;;
37407;SDS011;24866;50.248;8.252;2023-03-23T12:41:33;1.20;;;0.50;;
37407;SDS011;24866;50.248;8.252;2023-03-23T12:44:11;1.27;;;0.52;;
37407;SDS011;24866;50.248;8.252;2023-03-23T12:46:55;1.95;;;0.80;;
37407;SDS011;24866;50.248;8.252;2023-03-23T12:49:39;1.70;;;0.45;;
37407;SDS011;24866;50.248;8.252;2023-03-23T12:52:14;1.02;;;0.30;;
37407;SDS011;24866;50.248;8.252;2023-03-23T12:54:50;3.28;;;0.93;;
37407;SDS011;24866;50.248;8.252;2023-03-23T12:57:26;1.05;;;0.40;;
37407;SDS011;24866;50.248;8.252;2023-03-23T13:00:03;1.88;;;0.50;;
37407;SDS011;24866;50.248;8.252;2023-03-23T13:02:43;1.10;;;0.40;;
37407;SDS011;24866;50.248;8.252;2023-03-23T13:05:27;2.15;;;0.60;;
37407;SDS011;24866;50.248;8.252;2023-03-23T13:08:10;0.65;;;0.20;;
37407;SDS011;24866;50.248;8.252;2023-03-23T13:10:45;0.60;;;0.30;;
37407;SDS011;24866;50.248;8.252;2023-03-23T13:13:17;1.90;;;0.50;;
37407;SDS011;24866;50.248;8.252;2023-03-23T13:15:57;0.90;;;0.47;;
37407;SDS011;24866;50.248;8.252;2023-03-23T13:18:37;0.82;;;0.40;;
37407;SDS011;24866;50.248;8.252;2023-03-23T13:21:14;0.90;;;0.50;;
37407;SDS011;24866;50.248;8.252;2023-03-23T13:23:52;1.15;;;0.55;;
37407;SDS011;24866;50.248;8.252;2023-03-23T13:26:26;0.70;;;0.43;;
37407;SDS011;24866;50.248;8.252;2023-03-23T13:28:58;0.63;;;0.40;;
37407;SDS011;24866;50.248;8.252;2023-03-23T13:31:32;1.63;;;0.45;;
37407;SDS011;24866;50.248;8.252;2023-03-23T13:34:05;1.40;;;0.60;;
37407;SDS011;24866;50.248;8.252;2023-03-23T13:36:51;1.40;;;0.60;;
37407;SDS011;24866;50.248;8.252;2023-03-23T13:39:24;1.15;;;0.40;;
37407;SDS011;24866;50.248;8.252;2023-03-23T13:42:00;1.52;;;0.40;;
37407;SDS011;24866;50.248;8.252;2023-03-23T13:44:41;1.23;;;0.50;;
37407;SDS011;24866;50.248;8.252;2023-03-23T13:47:21;1.63;;;0.73;;
37407;SDS011;24866;50.248;8.252;2023-03-23T13:49:56;1.05;;;0.50;;
37407;SDS011;24866;50.248;8.252;2023-03-23T13:52:38;1.55;;;0.32;;
37407;SDS011;24866;50.248;8.252;2023-03-23T13:55:30;1.38;;;0.60;;
37407;SDS011;24866;50.248;8.252;2023-03-23T13:58:10;1.27;;;0.63;;
37407;SDS011;24866;50.248;8.252;2023-03-23T14:00:45;0.85;;;0.60;;
37407;SDS011;24866;50.248;8.252;2023-03-23T14:03:19;2.13;;;0.60;;
37407;SDS011;24866;50.248;8.252;2023-03-23T14:06:01;1.60;;;0.52;;
37407;SDS011;24866;50.248;8.252;2023-03-23T14:08:38;2.92;;;0.60;;
37407;SDS011;24866;50.248;8.252;2023-03-23T14:11:11;1.67;;;0.50;;
37407;SDS011;24866;50.248;8.252;2023-03-23T14:13:46;2.08;;;0.50;;
37407;SDS011;24866;50.248;8.252;2023-03-23T14:16:30;2.58;;;0.75;;
37407;SDS011;24866;50.248;8.252;2023-03-23T14:19:19;1.38;;;0.63;;
37407;SDS011;24866;50.248;8.252;2023-03-23T14:21:53;2.15;;;0.98;;
37407;SDS011;24866;50.248;8.252;2023-03-23T14:24:28;1.70;;;0.70;;
37407;SDS011;24866;50.248;8.252;2023-03-23T14:27:08;1.77;;;0.88;;
37407;SDS011;24866;50.248;8.252;2023-03-23T14:29:40;1.10;;;0.60;;
37407;SDS011;24866;50.248;8.252;2023-03-23T14:32:12;1.08;;;0.47;;
37407;SDS011;24866;50.248;8.252;2023-03-23T14:34:46;0.98;;;0.47;;
37407;SDS011;24866;50.248;8.252;2023-03-23T14:37:17;1.77;;;0.60;;
37407;SDS011;24866;50.248;8.252;2023-03-23T14:39:50;1.95;;;0.73;;
37407;SDS011;24866;50.248;8.252;2023-03-23T14:42:26;1.83;;;0.80;;
37407;SDS011;24866;50.248;8.252;2023-03-23T14:44:59;1.67;;;0.82;;
37407;SDS011;24866;50.248;8.252;2023-03-23T14:47:33;1.48;;;0.75;;
37407;SDS011;24866;50.248;8.252;2023-03-23T14:50:07;3.97;;;1.02;;
37407;SDS011;24866;50.248;8.252;2023-03-23T14:52:53;2.60;;;1.00;;
37407;SDS011;24866;50.248;8.252;2023-03-23T14:55:26;1.42;;;0.60;;
37407;SDS011;24866;50.248;8.252;2023-03-23T14:58:05;2.67;;;1.23;;
37407;SDS011;24866;50.248;8.252;2023-03-23T15:00:39;2.03;;;0.80;;
37407;SDS011;24866;50.248;8.252;2023-03-23T15:03:12;2.25;;;0.90;;
37407;SDS011;24866;50.248;8.252;2023-03-23T15:05:47;3.95;;;1.42;;
37407;SDS011;24866;50.248;8.252;2023-03-23T15:08:23;2.33;;;0.73;;
37407;SDS011;24866;50.248;8.252;2023-03-23T15:11:03;2.78;;;0.77;;
37407;SDS011;24866;50.248;8.252;2023-03-23T15:13:36;1.15;;;0.63;;
37407;SDS011;24866;50.248;8.252;2023-03-23T15:16:12;2.13;;;0.65;;
37407;SDS011;24866;50.248;8.252;2023-03-23T15:18:49;2.47;;;1.27;;
37407;SDS011;24866;50.248;8.252;2023-03-23T15:21:24;2.30;;;1.00;;
37407;SDS011;24866;50.248;8.252;2023-03-23T15:23:56;2.53;;;0.70;;
37407;SDS011;24866;50.248;8.252;2023-03-23T15:26:30;2.65;;;0.85;;
37407;SDS011;24866;50.248;8.252;2023-03-23T15:29:12;1.88;;;0.80;;
37407;SDS011;24866;50.248;8.252;2023-03-23T15:31:46;3.13;;;0.70;;
37407;SDS011;24866;50.248;8.252;2023-03-23T15:34:19;2.63;;;0.80;;
37407;SDS011;24866;50.248;8.252;2023-03-23T15:36:55;1.35;;;0.57;;
37407;SDS011;24866;50.248;8.252;2023-03-23T15:39:44;2.10;;;0.60;;
37407;SDS011;24866;50.248;8.252;2023-03-23T15:42:21;2.25;;;0.82;;
37407;SDS011;24866;50.248;8.252;2023-03-23T15:44:57;2.05;;;0.70;;
37407;SDS011;24866;50.248;8.252;2023-03-23T15:47:35;1.13;;;0.50;;
37407;SDS011;24866;50.248;8.252;2023-03-23T15:50:08;2.97;;;0.80;;
37407;SDS011;24866;50.248;8.252;2023-03-23T15:52:38;1.88;;;0.90;;